Time;durP1;ratioP1;P1;durP2;ratioP2;P2;SDS_P1;SDS_P2;PMS_P1;PMS_P2;Temp;Humidity;BMP_temperature;BMP_pressure;BME280_temperature;BME280_humidity;BME280_pressure;Samples;Min_cycle;Max_cycle;Signal;HPM_P1;HPM_P2
2022/05/02 00:02:11;;;;;;;;;;;;;;;21.01;30.86;98176.06;5055237;28;978;-75
2022/05/02 00:04:36;;;;;;;;;;;;;;;21.16;30.70;98171.69;5055589;28;852;-75
2022/05/02 00:07:02;;;;;;;;;;;;;;;21.14;30.51;98173.34;5055405;28;1173;-75
2022/05/02 00:09:28;;;;;;;;;;;;;;;20.82;31.26;98169.19;5055204;28;1065;-75
2022/05/02 00:11:53;;;;;;;;;;;;;;;20.95;30.80;98161.66;5055262;28;932;-75
2022/05/02 00:14:19;;;;;;;;;;;;;;;21.11;30.61;98166.56;5055638;28;916;-75
2022/05/02 00:16:44;;;;;;;;;;;;;;;21.05;30.79;98165.47;5055011;28;953;-75
2022/05/02 00:19:10;;;;;;;;;;;;;;;21.36;30.80;98162.41;5054702;28;1914;-75
2022/05/02 00:21:35;;;;;;;;;;;;;;;21.89;29.61;98161.09;5054712;28;1020;-75
2022/05/02 00:24:01;;;;;;;;;;;;;;;22.07;29.11;98167.13;5054990;28;936;-75
2022/05/02 00:26:26;;;;;;;;;;;;;;;22.21;29.02;98154.63;5072523;28;2409;-75
2022/05/02 00:28:52;;;;;;;;;;;;;;;21.65;29.65;98151.19;5072081;28;975;-75
2022/05/02 00:31:17;;;;;;;;;;;;;;;21.32;30.08;98163.28;5072558;28;1019;-75
2022/05/02 00:33:43;;;;;;;;;;;;;;;21.26;30.49;98165.00;5072295;28;943;-75
2022/05/02 00:36:08;;;;;;;;;;;;;;;21.27;30.50;98160.13;5072391;28;944;-75
2022/05/02 00:38:34;;;;;;;;;;;;;;;21.17;30.50;98150.66;5072208;28;1034;-75
2022/05/02 00:40:59;;;;;;;;;;;;;;;21.20;30.32;98161.09;5071508;28;1918;-75
2022/05/02 00:43:25;;;;;;;;;;;;;;;21.14;30.52;98160.03;5072202;28;1048;-75
2022/05/02 00:45:50;;;;;;;;;;;;;;;21.13;30.66;98161.25;5072525;28;1018;-75
2022/05/02 00:48:15;;;;;;;;;;;;;;;21.19;30.63;98158.69;5072375;28;966;-75
2022/05/02 00:50:42;;;;;;;;;;;;;;;20.97;30.91;98158.38;5072025;28;963;-75
2022/05/02 00:53:08;;;;;;;;;;;;;;;21.43;30.26;98165.06;5072265;28;1086;-75
2022/05/02 00:55:34;;;;;;;;;;;;;;;21.97;29.26;98167.41;5072309;28;973;-75
2022/05/02 00:58:00;;;;;;;;;;;;;;;21.70;29.63;98167.66;5059027;28;1006;-75
2022/05/02 01:00:26;;;;;;;;;;;;;;;21.21;30.17;98162.69;5054813;28;1980;-75
2022/05/02 01:02:51;;;;;;;;;;;;;;;21.12;30.53;98162.47;5054595;28;896;-75
2022/05/02 01:05:17;;;;;;;;;;;;;;;21.03;30.48;98167.94;5054569;28;920;-75
2022/05/02 01:07:42;;;;;;;;;;;;;;;21.10;30.49;98161.34;5054520;28;945;-75
2022/05/02 01:10:08;;;;;;;;;;;;;;;21.04;30.51;98163.91;5092171;28;942;-75
2022/05/02 01:12:33;;;;;;;;;;;;;;;21.22;30.56;98164.28;5092294;28;1023;-75
2022/05/02 01:14:59;;;;;;;;;;;;;;;21.73;29.73;98158.28;5092412;28;912;-75
2022/05/02 01:17:24;;;;;;;;;;;;;;;22.07;28.95;98160.63;5092329;28;984;-75
2022/05/02 01:19:50;;;;;;;;;;;;;;;21.54;29.51;98165.59;5091825;28;1987;-75
2022/05/02 01:22:16;;;;;;;;;;;;;;;21.14;30.18;98162.88;5071701;28;1160;-75
2022/05/02 01:24:42;;;;;;;;;;;;;;;21.17;29.99;98167.63;5071919;28;955;-75
2022/05/02 01:27:08;;;;;;;;;;;;;;;21.02;30.58;98155.03;5072013;28;930;-75
2022/05/02 01:29:34;;;;;;;;;;;;;;;21.19;30.66;98165.19;5072014;28;1004;-75
2022/05/02 01:32:06;;;;;;;;;;;;;;;21.68;29.91;98156.78;5038203;28;978;-75
2022/05/02 01:34:34;;;;;;;;;;;;;;;22.11;28.86;98150.03;5055593;28;977;-75
2022/05/02 01:37:00;;;;;;;;;;;;;;;21.38;29.63;98159.91;5071502;28;904;-75
2022/05/02 01:39:26;;;;;;;;;;;;;;;21.11;30.34;98145.97;5071837;28;1909;-75
2022/05/02 01:41:51;;;;;;;;;;;;;;;21.08;30.15;98151.25;5056086;28;951;-75
2022/05/02 01:44:17;;;;;;;;;;;;;;;21.12;30.24;98147.53;5051528;28;973;-75
2022/05/02 01:46:42;;;;;;;;;;;;;;;21.06;30.52;98156.53;5051437;28;942;-75
2022/05/02 01:49:08;;;;;;;;;;;;;;;20.86;30.70;98152.16;5052269;28;887;-75
2022/05/02 01:51:33;;;;;;;;;;;;;;;21.12;30.68;98151.16;5051788;28;966;-75
2022/05/02 01:53:59;;;;;;;;;;;;;;;21.78;29.35;98144.38;5055134;28;870;-75
2022/05/02 01:56:24;;;;;;;;;;;;;;;22.04;29.09;98144.53;5055392;28;980;-75
2022/05/02 01:58:50;;;;;;;;;;;;;;;21.58;29.46;98132.34;5055522;28;1983;-75
2022/05/02 02:01:15;;;;;;;;;;;;;;;21.23;29.81;98143.22;5057708;28;1048;-75
2022/05/02 02:03:40;;;;;;;;;;;;;;;21.10;30.02;98139.50;5057794;28;1001;-75
2022/05/02 02:06:06;;;;;;;;;;;;;;;21.35;30.34;98143.81;5057665;28;983;-75
2022/05/02 02:08:32;;;;;;;;;;;;;;;21.77;29.25;98147.66;5057352;28;872;-75
2022/05/02 02:10:58;;;;;;;;;;;;;;;22.30;28.41;98143.47;5057888;28;1006;-75
2022/05/02 02:13:24;;;;;;;;;;;;;;;21.61;29.08;98147.66;5088664;28;978;-75
2022/05/02 02:15:49;;;;;;;;;;;;;;;21.27;29.72;98149.63;5057338;28;929;-75
2022/05/02 02:18:15;;;;;;;;;;;;;;;21.18;29.89;98145.78;5057506;28;968;-75
2022/05/02 02:20:44;;;;;;;;;;;;;;;21.16;29.92;98143.41;5056982;28;1957;-75
2022/05/02 02:23:09;;;;;;;;;;;;;;;21.14;30.62;98139.41;5057421;28;1036;-75
2022/05/02 02:25:36;;;;;;;;;;;;;;;21.69;29.51;98141.38;5057418;28;902;-75
2022/05/02 02:28:01;;;;;;;;;;;;;;;22.05;28.78;98140.47;5057361;28;914;-75
2022/05/02 02:30:30;;;;;;;;;;;;;;;21.51;29.42;98136.16;5057310;28;827;-75
2022/05/02 02:32:56;;;;;;;;;;;;;;;21.25;29.89;98134.31;5057303;28;911;-75
2022/05/02 02:35:21;;;;;;;;;;;;;;;21.20;30.01;98132.81;5056883;28;870;-76
2022/05/02 02:37:47;;;;;;;;;;;;;;;21.18;30.05;98140.91;5057107;28;888;-75
2022/05/02 02:40:13;;;;;;;;;;;;;;;21.00;30.64;98140.53;5094547;28;1913;-75
2022/05/02 02:42:38;;;;;;;;;;;;;;;21.01;30.51;98140.09;5094793;28;1101;-75
2022/05/02 02:45:04;;;;;;;;;;;;;;;21.04;30.36;98138.44;5094760;28;1044;-75
2022/05/02 02:47:30;;;;;;;;;;;;;;;21.05;30.66;98140.03;5094377;28;884;-75
2022/05/02 02:49:55;;;;;;;;;;;;;;;20.96;30.90;98139.81;5094280;28;951;-75
2022/05/02 02:52:20;;;;;;;;;;;;;;;21.55;29.88;98139.69;5060358;28;1189;-75
2022/05/02 02:54:46;;;;;;;;;;;;;;;21.89;28.95;98138.44;5094555;28;944;-75
2022/05/02 02:57:11;;;;;;;;;;;;;;;22.06;28.60;98130.72;5094463;28;964;-75
2022/05/02 02:59:37;;;;;;;;;;;;;;;21.47;29.66;98132.59;5094312;28;1905;-75
2022/05/02 03:02:02;;;;;;;;;;;;;;;21.17;30.09;98127.22;5094390;28;1262;-75
2022/05/02 03:07:12;;;;;;;;;;;;;;;21.63;29.53;98125.34;5094178;28;928;-75
2022/05/02 03:09:37;;;;;;;;;;;;;;;21.93;29.26;98129.84;5094250;28;1085;-75
2022/05/02 03:12:03;;;;;;;;;;;;;;;21.77;28.84;98130.66;5062178;28;940;-75
2022/05/02 03:14:28;;;;;;;;;;;;;;;21.36;29.91;98117.91;5056255;28;1097;-75
2022/05/02 03:16:54;;;;;;;;;;;;;;;21.12;29.84;98131.34;5056348;28;963;-75
2022/05/02 03:19:19;;;;;;;;;;;;;;;21.08;30.28;98122.16;5056163;28;1906;-75
2022/05/02 03:21:45;;;;;;;;;;;;;;;21.37;30.33;98118.72;5056145;28;1039;-75
2022/05/02 03:24:10;;;;;;;;;;;;;;;21.83;29.17;98129.69;5055745;28;886;-75
2022/05/02 03:26:36;;;;;;;;;;;;;;;22.04;28.68;98127.53;5056240;28;896;-75
2022/05/02 03:29:01;;;;;;;;;;;;;;;21.43;29.61;98122.59;5055950;28;885;-75
2022/05/02 03:31:27;;;;;;;;;;;;;;;21.13;30.25;98124.47;5055776;28;910;-75
2022/05/02 03:33:52;;;;;;;;;;;;;;;21.16;29.89;98126.44;5056104;28;975;-75
2022/05/02 03:36:17;;;;;;;;;;;;;;;21.06;30.15;98122.59;5056024;28;1108;-75
2022/05/02 03:38:43;;;;;;;;;;;;;;;21.04;30.34;98125.09;5056238;28;2061;-75
2022/05/02 03:41:09;;;;;;;;;;;;;;;21.12;30.11;98125.69;5056126;28;991;-75
2022/05/02 03:43:35;;;;;;;;;;;;;;;21.46;30.25;98116.84;5055786;28;1592;-75
2022/05/02 03:46:01;;;;;;;;;;;;;;;21.92;29.21;98128.28;5054565;28;1582;-75
2022/05/02 03:48:26;;;;;;;;;;;;;;;21.98;29.05;98113.13;5055811;28;1043;-75
2022/05/02 03:50:52;;;;;;;;;;;;;;;21.46;29.61;98116.06;5055752;28;917;-75
2022/05/02 03:53:18;;;;;;;;;;;;;;;21.33;29.76;98113.91;5055477;28;1124;-75
2022/05/02 03:55:45;;;;;;;;;;;;;;;21.20;30.17;98121.50;5055429;28;942;-75
2022/05/02 03:58:10;;;;;;;;;;;;;;;21.22;30.09;98121.84;5056574;28;1369;-75
2022/05/02 04:00:36;;;;;;;;;;;;;;;21.03;30.57;98122.66;5073543;28;2395;-75
2022/05/02 04:03:01;;;;;;;;;;;;;;;21.02;30.32;98115.44;5075844;28;927;-75
2022/05/02 04:05:27;;;;;;;;;;;;;;;21.47;30.14;98117.66;5075252;28;910;-75
2022/05/02 04:07:52;;;;;;;;;;;;;;;21.84;29.04;98111.44;5075330;28;1577;-75
2022/05/02 04:10:18;;;;;;;;;;;;;;;21.95;28.81;98110.38;5075363;28;1032;-75
2022/05/02 04:12:43;;;;;;;;;;;;;;;21.41;29.57;98102.44;5075308;28;934;-75
2022/05/02 04:15:09;;;;;;;;;;;;;;;21.24;29.56;98104.41;5080899;28;1730;-75
2022/05/02 04:17:35;;;;;;;;;;;;;;;21.06;29.92;98096.34;5072393;28;1750;-75
2022/05/02 04:20:00;;;;;;;;;;;;;;;21.30;29.93;98092.16;5076476;28;1894;-75
2022/05/02 04:22:26;;;;;;;;;;;;;;;21.73;28.92;98102.44;5092840;28;1012;-75
2022/05/02 04:24:51;;;;;;;;;;;;;;;21.94;28.67;98089.75;5092697;28;1063;-75
2022/05/02 04:27:17;;;;;;;;;;;;;;;21.62;28.86;98099.06;5093005;28;1000;-75
2022/05/02 04:29:42;;;;;;;;;;;;;;;21.31;29.30;98099.41;5092906;28;1031;-76
2022/05/02 04:32:08;;;;;;;;;;;;;;;21.12;29.46;98096.63;5088260;28;1619;-75
2022/05/02 04:34:33;;;;;;;;;;;;;;;21.08;29.58;98086.16;5072443;28;915;-75
2022/05/02 04:36:59;;;;;;;;;;;;;;;21.24;30.02;98088.25;5072341;28;1079;-75
2022/05/02 04:39:24;;;;;;;;;;;;;;;21.71;28.75;98087.94;5072392;28;1990;-75
2022/05/02 04:41:50;;;;;;;;;;;;;;;22.07;28.16;98076.44;5072297;28;994;-75
2022/05/02 04:44:15;;;;;;;;;;;;;;;21.39;28.91;98082.25;5072653;28;972;-75
2022/05/02 04:46:41;;;;;;;;;;;;;;;21.08;29.65;98076.88;5102848;28;964;-75
2022/05/02 04:49:06;;;;;;;;;;;;;;;21.09;29.24;98075.66;5055137;28;1005;-75
2022/05/02 04:51:31;;;;;;;;;;;;;;;21.13;29.37;98070.69;5054740;28;869;-75
2022/05/02 04:53:57;;;;;;;;;;;;;;;21.62;28.78;98079.25;5067072;28;894;-75
2022/05/02 04:56:22;;;;;;;;;;;;;;;21.99;27.97;98066.53;5073603;28;1548;-75
2022/05/02 04:58:48;;;;;;;;;;;;;;;21.77;28.23;98080.47;5074838;28;1906;-75
2022/05/02 05:01:13;;;;;;;;;;;;;;;21.39;28.75;98082.25;5069071;28;1579;-75
2022/05/02 05:03:39;;;;;;;;;;;;;;;21.22;28.88;98067.28;5064563;28;1706;-75
2022/05/02 05:06:04;;;;;;;;;;;;;;;21.04;28.94;98073.38;5065523;28;946;-75
2022/05/02 05:08:30;;;;;;;;;;;;;;;21.16;29.58;98064.19;5057489;28;1713;-75
2022/05/02 05:10:55;;;;;;;;;;;;;;;21.78;28.33;98069.94;5054478;28;895;-75
2022/05/02 05:13:23;;;;;;;;;;;;;;;22.01;27.97;98072.53;5054374;28;870;-75
2022/05/02 05:16:22;;;;;;;;;;;;;;;22.03;27.63;98066.44;5068753;28;1047;-75
2022/05/02 05:19:03;;;;;;;;;;;;;;;21.31;28.87;98070.31;5055856;28;1906;-75
2022/05/02 05:21:28;;;;;;;;;;;;;;;21.01;29.23;98068.56;5074667;28;990;-75
2022/05/02 05:24:02;;;;;;;;;;;;;;;20.89;29.38;98074.94;5073097;28;1080;-75
2022/05/02 05:26:50;;;;;;;;;;;;;;;20.99;29.18;98079.53;5107032;28;885;-75
2022/05/02 05:29:29;;;;;;;;;;;;;;;21.12;29.72;98071.94;5112750;28;999;-75
2022/05/02 05:31:57;;;;;;;;;;;;;;;21.59;28.50;98068.81;5055586;28;1153;-75
2022/05/02 05:34:43;;;;;;;;;;;;;;;22.03;27.58;98074.94;5056028;28;1242;-75
2022/05/02 05:37:21;;;;;;;;;;;;;;;21.40;28.44;98078.19;5055536;28;1015;-75
2022/05/02 05:40:05;;;;;;;;;;;;;;;20.99;29.10;98086.00;5055622;28;1906;-75
2022/05/02 05:42:49;;;;;;;;;;;;;;;20.89;29.26;98083.41;5055544;28;923;-75
2022/05/02 05:45:15;;;;;;;;;;;;;;;21.10;29.61;98082.91;5056099;28;905;-75
2022/05/02 05:47:43;;;;;;;;;;;;;;;21.77;27.98;98083.31;5055351;28;882;-75
2022/05/02 05:50:22;;;;;;;;;;;;;;;21.99;27.71;98085.56;5055607;28;945;-75
2022/05/02 05:53:06;;;;;;;;;;;;;;;21.44;28.27;98095.88;5071163;28;1529;-75
2022/05/02 05:55:39;;;;;;;;;;;;;;;21.11;28.96;98101.47;5048063;28;1763;-75
2022/05/02 05:58:23;;;;;;;;;;;;;;;21.11;28.69;98101.47;5055254;28;1675;-75
2022/05/02 06:00:49;;;;;;;;;;;;;;;21.29;29.30;98101.06;5055205;28;1980;-75
2022/05/02 06:03:23;;;;;;;;;;;;;;;21.80;28.37;98107.91;5067349;28;1055;-75
2022/05/02 06:05:49;;;;;;;;;;;;;;;22.08;27.43;98094.25;5032445;28;949;-75
2022/05/02 06:08:21;;;;;;;;;;;;;;;21.62;28.00;98096.25;5015578;28;914;-75
2022/05/02 06:10:47;;;;;;;;;;;;;;;21.23;28.80;98097.16;5048077;28;1330;-75
2022/05/02 06:13:14;;;;;;;;;;;;;;;21.17;28.62;98105.38;4991537;28;1609;-75
2022/05/02 06:18:27;;;;;;;;;;;;;;;21.37;28.93;98107.38;4976060;28;1169;-75
2022/05/02 06:20:53;;;;;;;;;;;;;;;21.82;27.95;98119.59;4976244;28;1906;-75
2022/05/02 06:23:18;;;;;;;;;;;;;;;22.05;27.80;98110.09;4975466;28;1298;-75
2022/05/02 06:25:45;;;;;;;;;;;;;;;21.44;28.72;98113.66;4918113;29;1121;-75
2022/05/02 06:28:10;;;;;;;;;;;;;;;21.24;28.75;98112.91;4918261;29;955;-75
2022/05/02 06:30:37;;;;;;;;;;;;;;;21.10;28.87;98121.72;4903052;29;1040;-75
2022/05/02 06:33:05;;;;;;;;;;;;;;;21.04;29.13;98112.97;4899425;29;985;-75
2022/05/02 06:35:45;;;;;;;;;;;;;;;21.04;29.49;98125.09;4918213;29;870;-75
2022/05/02 06:38:10;;;;;;;;;;;;;;;21.70;28.27;98125.16;4956181;28;939;-75
2022/05/02 06:40:35;;;;;;;;;;;;;;;21.92;27.94;98126.25;4962694;28;1974;-75
2022/05/02 06:43:09;;;;;;;;;;;;;;;21.33;28.63;98125.25;4975926;28;1690;-75
2022/05/02 06:45:43;;;;;;;;;;;;;;;21.09;28.90;98129.44;4994814;28;965;-75
2022/05/02 06:48:29;;;;;;;;;;;;;;;20.94;29.09;98125.31;4975393;28;981;-75
2022/05/02 06:50:59;;;;;;;;;;;;;;;21.31;28.78;98132.59;4975415;28;876;-75
2022/05/02 06:53:28;;;;;;;;;;;;;;;21.85;27.71;98147.03;4978523;28;977;-75
2022/05/02 06:56:09;;;;;;;;;;;;;;;21.90;27.43;98139.22;4994737;28;950;-75
2022/05/02 06:58:51;;;;;;;;;;;;;;;21.32;28.35;98140.63;4978779;28;1720;-75
2022/05/02 07:01:35;;;;;;;;;;;;;;;21.02;28.88;98138.84;5010929;28;967;-75
2022/05/02 07:04:02;;;;;;;;;;;;;;;20.90;29.12;98135.91;5041370;28;1199;-75
2022/05/02 07:06:45;;;;;;;;;;;;;;;20.96;29.13;98145.47;5052272;28;980;-75
2022/05/02 07:09:13;;;;;;;;;;;;;;;21.56;28.19;98143.31;5034492;28;1037;-75
2022/05/02 07:11:51;;;;;;;;;;;;;;;21.92;27.76;98142.44;5033926;28;1244;-75
2022/05/02 07:14:17;;;;;;;;;;;;;;;21.63;27.90;98154.47;5017210;28;879;-75
2022/05/02 07:16:44;;;;;;;;;;;;;;;21.16;28.83;98148.28;5054187;28;1505;-75
2022/05/02 07:19:09;;;;;;;;;;;;;;;21.16;28.74;98137.75;5090498;28;2260;-75
2022/05/02 07:21:43;;;;;;;;;;;;;;;21.11;28.92;98146.75;5073797;28;1132;-75
2022/05/02 07:24:26;;;;;;;;;;;;;;;21.09;29.06;98149.22;5073801;28;914;-75
2022/05/02 07:27:00;;;;;;;;;;;;;;;21.66;27.95;98145.09;5071620;28;1595;-76
2022/05/02 07:29:26;;;;;;;;;;;;;;;21.98;27.50;98147.13;5073435;28;1895;-75
2022/05/02 07:31:51;;;;;;;;;;;;;;;21.42;28.19;98154.97;5073513;28;886;-75
2022/05/02 07:34:17;;;;;;;;;;;;;;;21.20;28.75;98155.44;5073609;28;941;-75
2022/05/02 07:36:43;;;;;;;;;;;;;;;20.94;28.96;98153.59;5073198;28;972;-75
2022/05/02 07:39:10;;;;;;;;;;;;;;;20.96;28.90;98149.09;5055201;28;1909;-75
2022/05/02 07:41:36;;;;;;;;;;;;;;;21.45;28.25;98143.59;5073140;28;938;-75
2022/05/02 07:44:04;;;;;;;;;;;;;;;21.85;27.61;98147.03;5073214;28;1093;-75
2022/05/02 07:46:33;;;;;;;;;;;;;;;22.04;27.34;98156.66;5072819;28;1032;-75
2022/05/02 07:48:58;;;;;;;;;;;;;;;21.65;27.84;98151.97;5083211;28;1460;-75
2022/05/02 07:51:24;;;;;;;;;;;;;;;21.37;28.36;98147.00;5093480;28;1146;-75
2022/05/02 07:53:50;;;;;;;;;;;;;;;21.16;28.56;98149.06;5093295;28;938;-75
2022/05/02 07:56:16;;;;;;;;;;;;;;;21.05;28.65;98126.66;5093503;28;878;-75
2022/05/02 07:58:41;;;;;;;;;;;;;;;21.01;28.97;98136.47;5068379;28;1489;-75
2022/05/02 08:01:07;;;;;;;;;;;;;;;21.46;28.26;98138.72;5058774;28;1965;-76
2022/05/02 08:03:32;;;;;;;;;;;;;;;21.96;27.51;98137.44;5055385;28;1174;-76
2022/05/02 08:06:01;;;;;;;;;;;;;;;22.01;27.29;98139.75;5055635;28;818;-75
2022/05/02 08:08:37;;;;;;;;;;;;;;;21.39;28.46;98134.00;5054740;28;1944;-75
2022/05/02 08:11:23;;;;;;;;;;;;;;;21.11;28.99;98140.31;5053067;28;905;-75
2022/05/02 08:13:58;;;;;;;;;;;;;;;21.11;28.76;98129.78;5032828;28;1217;-76
2022/05/02 08:16:24;;;;;;;;;;;;;;;21.07;29.18;98123.41;4993162;28;987;-75
2022/05/02 08:18:49;;;;;;;;;;;;;;;21.87;27.82;98114.66;4997171;28;1582;-76
2022/05/02 08:21:18;;;;;;;;;;;;;;;21.97;27.65;98116.41;5011254;28;1910;-76
2022/05/02 08:29:48;;;;;;;;;;;;;;;21.05;29.18;98137.19;5012030;28;1546;-75
2022/05/02 08:32:22;;;;;;;;;;;;;;;21.00;29.29;98129.22;5012438;28;962;-75
2022/05/02 08:34:51;;;;;;;;;;;;;;;21.67;28.10;98114.75;5013020;28;1106;-75
2022/05/02 08:37:35;;;;;;;;;;;;;;;22.03;27.50;98117.44;5013222;28;873;-75
2022/05/02 08:40:16;;;;;;;;;;;;;;;21.33;28.49;98122.41;4994952;28;1979;-75
2022/05/02 08:43:00;;;;;;;;;;;;;;;21.05;29.17;98125.88;4993245;28;1009;-75
2022/05/02 08:45:38;;;;;;;;;;;;;;;20.94;29.09;98119.66;4992880;28;941;-75
2022/05/02 08:48:21;;;;;;;;;;;;;;;21.42;28.78;98116.16;5038040;28;1553;-75
2022/05/02 08:50:56;;;;;;;;;;;;;;;21.99;27.64;98111.88;5053381;28;895;-75
2022/05/02 08:53:34;;;;;;;;;;;;;;;21.65;27.76;98103.03;5054849;28;963;-76
2022/05/02 08:56:00;;;;;;;;;;;;;;;21.29;28.57;98112.38;5054410;28;1318;-75
2022/05/02 08:58:37;;;;;;;;;;;;;;;21.13;28.84;98109.53;5058527;28;1500;-76
2022/05/02 09:01:21;;;;;;;;;;;;;;;21.02;29.09;98101.28;5071281;28;1926;-76
2022/05/02 09:04:01;;;;;;;;;;;;;;;21.66;28.09;98090.47;5078747;28;945;-75
2022/05/02 09:06:27;;;;;;;;;;;;;;;21.90;27.58;98093.91;5117088;28;939;-75
2022/05/02 09:09:07;;;;;;;;;;;;;;;22.26;27.09;98079.59;5116752;28;981;-75
2022/05/02 09:11:51;;;;;;;;;;;;;;;21.74;27.70;98089.84;5095861;28;1801;-75
2022/05/02 09:14:25;;;;;;;;;;;;;;;21.24;28.91;98085.41;5096594;28;875;-76
2022/05/02 09:16:51;;;;;;;;;;;;;;;21.19;28.68;98076.63;5109145;28;1697;-75
2022/05/02 09:19:22;;;;;;;;;;;;;;;20.97;29.08;98076.34;5116486;28;1897;-75
2022/05/02 09:22:06;;;;;;;;;;;;;;;20.85;29.32;98082.69;5116593;28;1013;-75
2022/05/02 09:24:38;;;;;;;;;;;;;;;20.88;29.28;98071.31;5113832;28;1473;-75
2022/05/02 09:27:22;;;;;;;;;;;;;;;20.91;29.21;98076.06;5115316;28;1604;-75
2022/05/02 09:30:05;;;;;;;;;;;;;;;21.78;28.11;98072.78;5116429;28;994;-76
2022/05/02 09:32:31;;;;;;;;;;;;;;;22.01;27.48;98072.53;5116493;28;976;-75
2022/05/02 09:35:01;;;;;;;;;;;;;;;21.83;27.71;98072.25;5106363;28;1456;-76
2022/05/02 09:37:39;;;;;;;;;;;;;;;21.47;28.30;98063.88;5058906;28;1654;-76
2022/05/02 09:40:12;;;;;;;;;;;;;;;21.13;28.83;98053.72;5055803;28;1906;-75
2022/05/02 09:42:40;;;;;;;;;;;;;;;21.02;28.91;98059.63;5055815;28;978;-75
2022/05/02 09:51:01;;;;;;;;;;;;;;;21.70;27.93;98046.66;5015906;28;936;-75
2022/05/02 09:53:30;;;;;;;;;;;;;;;21.32;28.75;98049.28;5055135;28;1079;-75
2022/05/02 09:58:58;;;;;;;;;;;;;;;21.08;29.14;98054.25;5015630;28;996;-75
2022/05/02 10:01:27;;;;;;;;;;;;;;;21.03;29.37;98046.28;5015802;28;1153;-75
2022/05/02 10:03:58;;;;;;;;;;;;;;;21.30;29.20;98046.09;5015122;28;1014;-75
2022/05/02 10:06:45;;;;;;;;;;;;;;;21.91;28.16;98038.84;5035165;28;1009;-75
2022/05/02 10:09:11;;;;;;;;;;;;;;;21.74;28.07;98030.38;5019186;28;997;-75
2022/05/02 10:11:43;;;;;;;;;;;;;;;21.38;28.66;98024.84;5034772;28;945;-75
2022/05/02 10:14:26;;;;;;;;;;;;;;;21.04;29.00;98022.44;5032708;28;2104;-75
2022/05/02 10:17:00;;;;;;;;;;;;;;;21.03;29.02;98021.63;5035371;28;1132;-75
2022/05/02 10:19:45;;;;;;;;;;;;;;;21.22;29.09;98011.47;4995321;28;1966;-75
2022/05/02 10:22:29;;;;;;;;;;;;;;;21.73;28.26;98000.47;4995651;28;1208;-75
2022/05/02 10:24:54;;;;;;;;;;;;;;;21.77;27.83;97995.50;4953561;28;1620;-75
2022/05/02 10:27:22;;;;;;;;;;;;;;;21.42;28.61;97990.81;4937771;29;958;-75
2022/05/02 10:29:56;;;;;;;;;;;;;;;21.12;28.98;97989.91;4972564;28;1002;-75
2022/05/02 10:32:27;;;;;;;;;;;;;;;21.03;29.29;97989.72;4995484;28;1052;-75
2022/05/02 10:34:52;;;;;;;;;;;;;;;20.88;29.79;97985.63;4995483;28;1541;-75
2022/05/02 10:37:20;;;;;;;;;;;;;;;21.57;28.74;97975.03;5054407;28;941;-75
2022/05/02 10:39:47;;;;;;;;;;;;;;;22.01;27.67;97975.41;5034105;28;1999;-75
2022/05/02 10:42:14;;;;;;;;;;;;;;;21.49;28.27;97979.28;5014268;28;972;-75
2022/05/02 10:45:02;;;;;;;;;;;;;;;21.27;28.79;97962.03;4995587;28;1476;-76
2022/05/02 10:47:27;;;;;;;;;;;;;;;21.13;29.25;97966.00;4956283;28;990;-75
2022/05/02 10:49:53;;;;;;;;;;;;;;;21.11;29.19;97976.19;4931208;29;1188;-75
2022/05/02 10:52:35;;;;;;;;;;;;;;;20.98;29.21;97978.91;4917913;29;1411;-75
2022/05/02 10:55:05;;;;;;;;;;;;;;;21.54;28.67;97970.25;4917659;29;1030;-75
2022/05/02 10:57:31;;;;;;;;;;;;;;;21.98;27.83;97959.34;4917946;29;1016;-75
2022/05/02 10:59:59;;;;;;;;;;;;;;;21.75;27.91;97949.84;4936807;29;1910;-75
2022/05/02 11:02:26;;;;;;;;;;;;;;;21.30;29.05;97955.53;4936204;29;1498;-75
2022/05/02 11:05:07;;;;;;;;;;;;;;;21.04;29.21;97937.56;4917473;29;951;-75
2022/05/02 11:07:34;;;;;;;;;;;;;;;20.96;29.32;97941.81;4914251;29;917;-75
2022/05/02 11:10:07;;;;;;;;;;;;;;;21.06;29.29;97941.53;4936497;29;1013;-75
2022/05/02 11:12:52;;;;;;;;;;;;;;;21.59;28.71;97944.22;4941414;28;1400;-75
2022/05/02 11:15:17;;;;;;;;;;;;;;;22.01;27.69;97935.75;4958688;28;1006;-76
2022/05/02 11:18:07;;;;;;;;;;;;;;;21.79;28.20;97939.22;4974820;28;1073;-76
2022/05/02 11:20:42;;;;;;;;;;;;;;;21.35;28.69;97940.03;4961365;28;1922;-75
2022/05/02 11:23:10;;;;;;;;;;;;;;;21.18;29.13;97940.03;4935980;29;1781;-75
2022/05/02 11:25:56;;;;;;;;;;;;;;;20.90;29.79;97944.38;4989816;28;1099;-75
2022/05/02 11:28:21;;;;;;;;;;;;;;;21.10;29.60;97952.78;4994457;28;963;-75
2022/05/02 11:30:47;;;;;;;;;;;;;;;21.82;28.17;97941.16;4993939;28;1188;-75
2022/05/02 11:33:15;;;;;;;;;;;;;;;22.03;27.95;97942.56;5015628;28;1647;-75
2022/05/02 11:35:43;;;;;;;;;;;;;;;21.60;28.27;97934.47;5033131;28;942;-75
2022/05/02 11:38:27;;;;;;;;;;;;;;;21.27;29.11;97939.41;5033113;28;973;-75
2022/05/02 11:40:59;;;;;;;;;;;;;;;21.30;28.76;97938.56;5016794;28;1993;-75
2022/05/02 11:43:24;;;;;;;;;;;;;;;21.08;29.15;97949.56;4997391;28;1542;-75
2022/05/02 11:46:00;;;;;;;;;;;;;;;21.20;29.29;97946.03;5013582;28;1034;-75
2022/05/02 11:48:45;;;;;;;;;;;;;;;21.75;28.25;97941.34;4997657;28;1021;-75
2022/05/02 11:51:14;;;;;;;;;;;;;;;21.69;28.07;97943.13;5013700;28;945;-75
2022/05/02 11:53:40;;;;;;;;;;;;;;;21.35;28.76;97945.69;5009554;28;1498;-75
2022/05/02 11:56:05;;;;;;;;;;;;;;;21.14;29.03;97942.16;5010263;28;958;-76
2022/05/02 11:58:34;;;;;;;;;;;;;;;21.13;29.23;97949.03;4994027;28;952;-75
2022/05/02 12:01:03;;;;;;;;;;;;;;;21.21;29.20;97944.81;4993807;28;1914;-75
2022/05/02 12:03:36;;;;;;;;;;;;;;;21.69;28.44;97943.13;5000490;28;1510;-76
2022/05/02 12:06:02;;;;;;;;;;;;;;;21.80;27.93;97952.13;5041283;28;1114;-75
2022/05/02 12:08:37;;;;;;;;;;;;;;;21.33;28.67;97943.31;5032939;28;1071;-75
2022/05/02 12:11:05;;;;;;;;;;;;;;;21.04;29.02;97944.03;5012604;28;1010;-75
2022/05/02 12:13:35;;;;;;;;;;;;;;;21.08;28.93;97944.72;4984420;28;1416;-75
2022/05/02 12:16:01;;;;;;;;;;;;;;;21.30;28.93;97933.69;4963731;28;1007;-75
2022/05/02 12:18:38;;;;;;;;;;;;;;;21.76;28.16;97942.94;5013225;28;992;-76
2022/05/02 12:21:05;;;;;;;;;;;;;;;21.72;28.14;97945.09;5013111;28;1918;-75
2022/05/02 12:23:33;;;;;;;;;;;;;;;21.32;28.71;97941.72;5037609;28;1539;-76
2022/05/02 12:25:58;;;;;;;;;;;;;;;21.20;28.89;97939.59;5052173;28;964;-75
2022/05/02 12:28:42;;;;;;;;;;;;;;;21.00;29.25;97942.53;5011792;28;1482;-76
2022/05/02 12:31:08;;;;;;;;;;;;;;;20.96;29.36;97947.47;5012691;28;1091;-75
2022/05/02 12:33:39;;;;;;;;;;;;;;;21.03;29.35;97939.59;4978421;28;1529;-75
2022/05/02 12:36:10;;;;;;;;;;;;;;;21.61;28.46;97930.44;4971707;28;1104;-75
2022/05/02 12:38:35;;;;;;;;;;;;;;;22.14;27.46;97945.13;4959220;28;1009;-75
2022/05/02 12:41:01;;;;;;;;;;;;;;;21.59;28.23;97938.56;4993103;28;1996;-75
2022/05/02 12:43:29;;;;;;;;;;;;;;;21.24;29.02;97945.94;4992424;28;1379;-75
2022/05/02 12:45:54;;;;;;;;;;;;;;;21.13;28.96;97940.56;4992784;28;959;-75
2022/05/02 12:48:23;;;;;;;;;;;;;;;21.08;29.10;97949.56;4992957;28;1180;-75
2022/05/02 12:50:49;;;;;;;;;;;;;;;21.07;29.13;97945.16;4993004;28;943;-75
2022/05/02 12:56:05;;;;;;;;;;;;;;;22.05;27.71;97947.78;4993152;28;966;-75
2022/05/02 13:01:15;;;;;;;;;;;;;;;21.33;28.90;97946.94;5032373;28;1910;-75
2022/05/02 13:03:40;;;;;;;;;;;;;;;21.13;29.09;97945.41;5032095;28;950;-75
2022/05/02 13:06:08;;;;;;;;;;;;;;;20.95;29.28;97943.06;5050870;28;980;-75
2022/05/02 13:08:38;;;;;;;;;;;;;;;20.88;29.63;97948.88;5068449;28;1343;-75
2022/05/02 13:11:06;;;;;;;;;;;;;;;21.60;28.53;97951.47;5032380;28;1337;-75
2022/05/02 13:13:38;;;;;;;;;;;;;;;21.98;27.97;97942.34;5031941;28;854;-75
2022/05/02 13:16:11;;;;;;;;;;;;;;;21.56;28.21;97939.47;5042350;28;1093;-75
2022/05/02 13:18:43;;;;;;;;;;;;;;;21.26;28.84;97938.59;5051866;28;1532;-75
2022/05/02 13:21:11;;;;;;;;;;;;;;;21.11;29.24;97937.38;5035418;28;1975;-75
2022/05/02 13:23:37;;;;;;;;;;;;;;;21.11;28.91;97942.25;5052068;28;1060;-75
2022/05/02 13:26:18;;;;;;;;;;;;;;;21.33;28.98;97938.44;5052079;28;990;-75
2022/05/02 13:29:03;;;;;;;;;;;;;;;21.75;28.31;97930.00;5051342;28;1668;-75
2022/05/02 13:31:48;;;;;;;;;;;;;;;21.78;28.00;97928.34;5051613;28;944;-75
2022/05/02 13:34:23;;;;;;;;;;;;;;;21.35;28.56;97928.69;5052281;28;972;-76
2022/05/02 13:36:48;;;;;;;;;;;;;;;21.15;29.16;97921.13;5031975;28;979;-75
2022/05/02 13:39:23;;;;;;;;;;;;;;;21.11;29.24;97919.63;5034474;28;1989;-76
2022/05/02 13:41:49;;;;;;;;;;;;;;;21.28;29.11;97924.78;5045716;28;1489;-75